• Join FlightAware (Why Join?)
  • Login
  • US Flag 
11:58PM EDT


 

Airport Tracker/Info


-or-


 

Live Flight TrackerFlight Track Log ✈ CTL14 ✈ 17-Apr-2013 ✈ KPWK - KOSU

Flight Track Log - Related Links

Times and Time Zones

All times are in EDT time to prevent confusion due to time zone crossing. See the CTL14 flight status page for this flight to view local times or setup timezone preferences in your user account.

Time Position Orientation Groundspeed Altitude Reporting Facility
EDT Latitude Longitude Course Direction KTS MPH feet Rate Location/Type
12:39AM 42.1500 -87.9167 340° North 116 133 1,400  Level Chicago TRACON
12:40AM 42.1667 -87.8833 56° Northeast 117 135 2,000 540 Climbing Chicago TRACON
12:41AM 42.1778 -87.8789 17° North 167 192 2,200 360 Climbing Chicago Center
12:42AM 42.1789 -87.8306 88° East 132 152 2,600 420 Climbing Chicago Center
12:43AM 42.1844 -87.7689 83° East 135 155 3,100 540 Climbing Chicago Center
12:44AM 42.1869 -87.7150 86° East 139 160 3,700 420 Climbing Chicago Center
12:45AM 42.1675 -87.6678 119° Southeast 146 168 4,000 120 Climbing Chicago Center
12:46AM 42.1503 -87.6139 113° Southeast 149 171 4,000  Level Chicago Center
12:47AM 42.1292 -87.5608 118° Southeast 156 180 4,000 240 Level Chicago Center
12:48AM 42.1067 -87.5081 120° Southeast 160 184 4,500 480 Climbing Chicago Center
12:49AM 42.0858 -87.4642 123° Southeast 154 177 5,000 540 Climbing Chicago Center
12:50AM 42.0675 -87.4200 119° Southeast 146 168 5,600 540 Climbing Chicago Center
12:51AM 42.0561 -87.3753 109° East 136 157 6,200 360 Climbing Chicago Center
12:52AM 42.0600 -87.3253 84° East 135 155 6,400 240 Climbing Chicago Center
12:53AM 42.0636 -87.2711 85° East 142 163 6,800 240 Climbing Chicago Center
12:54AM 42.0644 -87.2122 89° East 152 175 7,000 60 Climbing Chicago Center
12:55AM 42.0728 -87.1492 80° East 170 196 7,000  Level Chicago Center
12:56AM 42.0783 -87.0833 83° East 176 203 7,000  Level Chicago Center
12:57AM 42.0867 -87.0150 81° East 184 212 7,000 -60 Level Chicago Center
12:58AM 42.0903 -86.9472 86° East 184 212 6,900 -60 Descending Chicago Center
12:59AM 42.0969 -86.8683 83° East 179 206 6,900  Level Chicago Center
01:00AM 42.1028 -86.8028 83° East 178 205 7,000  Climbing Chicago Center
01:01AM 42.1086 -86.7378 83° East 176 203 7,000  Level Chicago Center
01:02AM 42.1111 -86.6739 87° East 173 199 7,100  Climbing Chicago Center
01:03AM 42.1156 -86.6092 85° East 174 200 7,100  Level Chicago Center
01:04AM 42.1286 -86.5447 75° East 176 203 7,200  Climbing Chicago Center
01:05AM 42.1322 -86.4789 86° East 176 203 7,200  Level Chicago Center
01:06AM 42.1339 -86.4125 88° East 178 205 7,200  Level Chicago Center
01:07AM 42.1236 -86.3656 106° East 154 177 7,200 -180 Level Chicago Center
01:08AM 42.0978 -86.3422 146° Southeast 118 136 6,900 -60 Descending Chicago Center
01:09AM 42.0750 -86.3153 139° Southeast 111 128 7,100 60 Climbing Chicago Center
01:10AM 42.0536 -86.2889 138° Southeast 106 122 7,100 -60 Level Chicago Center
01:11AM 42.0311 -86.2667 144° Southeast 101 116 7,000 -60 Descending Chicago Center
01:12AM 42.0094 -86.2478 147° Southeast 95 109 7,000  Level Chicago Center
01:13AM 41.9856 -86.2431 172° South 87 100 7,000  Level Chicago Center
01:14AM 41.9628 -86.2294 156° South 89 102 7,000  Level Chicago Center
01:15AM 41.9403 -86.2133 152° Southeast 91 105 7,000 60 Level Chicago Center
01:16AM 41.9189 -86.1875 138° Southeast 104 120 7,200  Climbing Chicago Center
01:17AM 41.8931 -86.1517 134° Southeast 131 151 7,000 -120 Descending Chicago Center
01:18AM 41.8622 -86.1169 140° Southeast 143 165 7,000  Level Chicago Center
01:19AM 41.8356 -86.0750 130° Southeast 149 171 7,100  Climbing Chicago Center
01:20AM 41.8075 -86.0194 124° Southeast 152 175 7,100  Level Chicago Center
01:21AM 41.7833 -85.9731 125° Southeast 152 175 7,200 -60 Climbing Chicago Center
01:22AM 41.7558 -85.9275 129° Southeast 156 180 7,000 -120 Descending Chicago Center
01:23AM 41.7303 -85.8825 127° Southeast 154 177 7,000  Level Chicago Center
01:24AM 41.7036 -85.8397 130° Southeast 152 175 7,000  Level Chicago Center
01:25AM 41.6761 -85.7978 131° Southeast 152 175 7,000  Level Chicago Center
01:26AM 41.6511 -85.7486 124° Southeast 157 181 7,100  Climbing Chicago Center
01:27AM 41.6244 -85.7025 128° Southeast 158 182 7,100 -60 Level Chicago Center
01:28AM 41.5981 -85.6572 128° Southeast 157 181 7,000 -120 Descending Chicago Center
01:29AM 41.5731 -85.6097 125° Southeast 157 181 6,900 -60 Descending Chicago Center
01:30AM 41.5453 -85.5667 131° Southeast 156 180 6,900  Level Chicago Center
01:31AM 41.5167 -85.5258 133° Southeast 153 176 6,900  Level Chicago Center
01:32AM 41.4881 -85.4833 132° Southeast 154 177 7,000  Climbing Chicago Center
01:33AM 41.4611 -85.4419 131° Southeast 152 175 7,000  Level Chicago Center
01:34AM 41.4342 -85.3978 129° Southeast 153 176 7,100  Climbing Chicago Center
01:35AM 41.4086 -85.3517 126° Southeast 155 178 7,000 -60 Descending Chicago Center
01:36AM 41.3764 -85.2964 128° Southeast 157 181 7,000  Level Chicago Center
01:37AM 41.3503 -85.2519 128° Southeast 155 178 7,000  Level Chicago Center
01:38AM 41.3236 -85.2072 128° Southeast 155 178 7,000  Level Chicago Center
01:39AM 41.2981 -85.1611 126° Southeast 155 178 7,000  Level Chicago Center
01:40AM 41.2714 -85.1156 128° Southeast 156 180 7,000 -60 Level Chicago Center
01:41AM 41.2442 -85.0722 130° Southeast 155 178 6,900  Descending Chicago Center
01:42AM 41.2178 -85.0272 128° Southeast 154 177 7,000  Climbing Chicago Center
01:43AM 41.1892 -84.9844 132° Southeast 155 178 7,000  Level Chicago Center
01:44AM 41.1608 -84.9425 132° Southeast 154 177 7,000  Level Chicago Center
01:45AM 41.1303 -84.9047 137° Southeast 153 176 7,100  Climbing Chicago Center
01:46AM 41.1022 -84.8625 131° Southeast 152 175 7,100 -60 Level Chicago Center
01:47AM 41.0744 -84.8200 131° Southeast 152 175 7,000  Descending Chicago Center
01:48AM 41.0494 -84.7706 124° Southeast 156 180 7,100  Climbing Chicago Center
01:49AM 41.0233 -84.7244 127° Southeast 157 181 7,100 -60 Level Chicago Center
01:50AM 40.9964 -84.6811 129° Southeast 156 180 7,000 -60 Descending Chicago Center
01:51AM 40.9678 -84.6367 130° Southeast 157 181 7,000  Level Chicago Center
01:52AM 40.9428 -84.5906 126° Southeast 156 180 7,000  Level Chicago Center
01:53AM 40.9153 -84.5453 129° Southeast 156 180 7,000 -60 Level Chicago Center
01:54AM 40.8900 -84.4997 126° Southeast 156 180 6,900 -60 Descending Chicago Center
01:55AM 40.8653 -84.4633 132° Southeast 158 182 6,900 60 Level Indianapolis Center
01:56AM 40.8389 -84.4142 125° Southeast 159 183 7,100  Climbing Indianapolis Center
01:57AM 40.8133 -84.3675 126° Southeast 158 182 6,900  Descending Indianapolis Center
01:58AM 40.7847 -84.3244 131° Southeast 157 181 7,100  Climbing Indianapolis Center
01:59AM 40.7617 -84.2742 121° Southeast 156 180 7,000  Descending Indianapolis Center
02:00AM 40.7347 -84.2269 127° Southeast 158 182 7,100  Climbing Indianapolis Center
02:01AM 40.7089 -84.1800 126° Southeast 158 182 7,000 -60 Descending Indianapolis Center
02:02AM 40.6833 -84.1322 125° Southeast 158 182 7,000  Level Indianapolis Center
02:03AM 40.6553 -84.0869 129° Southeast 159 183 7,000 -60 Level Indianapolis Center
02:04AM 40.6294 -84.0322 122° Southeast 163 188 6,900 -120 Descending Indianapolis Center
02:05AM 40.6147 -84.0081 129° Southeast 156 180 6,900 60 Level Indianapolis Center
02:05AM 40.6042 -83.9878 124° Southeast 160 184 7,000 180 Climbing Indianapolis Center
02:06AM 40.5889 -83.9608 127° Southeast 158 182 7,100 -240 Climbing Indianapolis Center
02:06AM 40.5794 -83.9383 119° Southeast 161 185 6,800 -300 Descending Indianapolis Center
02:07AM 40.5678 -83.9058 115° Southeast 179 206 6,800 -120 Level Indianapolis Center
02:07AM 40.5586 -83.8792 114° Southeast 175 201 6,700 -300 Descending Indianapolis Center
02:08AM 40.5378 -83.8608 146° Southeast 152 175 6,500 -240 Descending Indianapolis Center
02:08AM 40.5247 -83.8406 130° Southeast 162 186 6,500 -360 Level Indianapolis Center
02:09AM 40.5117 -83.8164 125° Southeast 179 206 6,200 -420 Descending Indianapolis Center
02:09AM 40.4972 -83.7872 123° Southeast 174 200 6,100 -300 Descending Indianapolis Center
02:10AM 40.4819 -83.7658 133° Southeast 176 203 5,900 -300 Descending Indianapolis Center
02:10AM 40.4661 -83.7372 126° Southeast 175 201 5,800 -300 Descending Indianapolis Center
02:11AM 40.4500 -83.7178 137° Southeast 168 193 5,600 -420 Descending Indianapolis Center
02:11AM 40.4342 -83.6919 129° Southeast 170 196 5,400 -300 Descending Indianapolis Center
02:12AM 40.4175 -83.6756 143° Southeast 167 192 5,300 -420 Descending Indianapolis Center
02:12AM 40.3992 -83.6522 136° Southeast 166 191 5,000 -540 Descending Indianapolis Center
02:13AM 40.3853 -83.6303 130° Southeast 171 197 4,800 -540 Descending Indianapolis Center
02:13AM 40.3694 -83.6019 126° Southeast 170 196 4,500 -420 Descending Indianapolis Center
02:14AM 40.3575 -83.5803 126° Southeast 176 203 4,400 -540 Descending Indianapolis Center
02:14AM 40.3394 -83.5508 129° Southeast 173 199 4,000 -540 Descending Indianapolis Center
02:15AM 40.3253 -83.5325 135° Southeast 168 193 3,900 -540 Descending Indianapolis Center
02:15AM 40.3092 -83.5042 127° Southeast 169 194 3,500 -540 Descending Indianapolis Center
02:16AM 40.2956 -83.4822 129° Southeast 165 190 3,400 -540 Descending Indianapolis Center
02:16AM 40.2808 -83.4553 126° Southeast 167 192 3,000 -420 Descending Indianapolis Center
02:17AM 40.2678 -83.4325 127° Southeast 167 192 3,000 -120 Level Indianapolis Center
02:17AM 40.2594 -83.4142 121° Southeast 164 189 2,900 -180 Descending Indianapolis Center
02:19AM 40.2324 -83.3525 120° Southeast  Level FlightAware Approximate
02:26AM 40.0798 -83.0732 123° Southeast  Level Estimated
02:27AM 40.0798 -83.0732 123° Southeast  Level Estimated
02:28AM 40.0798 -83.0732 123° Southeast  Level Estimated